sensor_id;sensor_type;location;lat;lon;timestamp;pressure;altitude;pressure_sealevel;temperature;humidity
84914;BME280;75177;43.832;5.974;2024-03-07T00:02:06;95171.22;;;8.79;66.78
84914;BME280;75177;43.832;5.974;2024-03-07T00:04:32;95167.06;;;8.77;66.57
84914;BME280;75177;43.832;5.974;2024-03-07T00:06:57;95177.69;;;8.77;67.37
84914;BME280;75177;43.832;5.974;2024-03-07T00:09:23;95173.34;;;8.68;68.33
84914;BME280;75177;43.832;5.974;2024-03-07T00:11:50;95159.47;;;8.56;66.62
84914;BME280;75177;43.832;5.974;2024-03-07T00:14:15;95158.19;;;8.68;68.80
84914;BME280;75177;43.832;5.974;2024-03-07T00:16:40;95162.38;;;8.71;68.36
84914;BME280;75177;43.832;5.974;2024-03-07T00:19:06;95168.75;;;8.78;69.24
84914;BME280;75177;43.832;5.974;2024-03-07T00:21:31;95161.44;;;8.80;66.94
84914;BME280;75177;43.832;5.974;2024-03-07T00:23:57;95167.69;;;8.71;68.63
84914;BME280;75177;43.832;5.974;2024-03-07T00:26:22;95164.03;;;8.64;68.38
84914;BME280;75177;43.832;5.974;2024-03-07T00:28:48;95163.47;;;8.60;68.30
84914;BME280;75177;43.832;5.974;2024-03-07T00:31:13;95167.78;;;8.53;66.70
84914;BME280;75177;43.832;5.974;2024-03-07T00:33:39;95157.59;;;8.49;68.27
84914;BME280;75177;43.832;5.974;2024-03-07T00:36:04;95159.59;;;8.47;68.11
84914;BME280;75177;43.832;5.974;2024-03-07T00:38:31;95160.94;;;8.51;70.79
84914;BME280;75177;43.832;5.974;2024-03-07T00:40:56;95155.19;;;8.38;67.65
84914;BME280;75177;43.832;5.974;2024-03-07T00:43:22;95172.84;;;8.39;69.98
84914;BME280;75177;43.832;5.974;2024-03-07T00:45:47;95162.22;;;8.39;68.53
84914;BME280;75177;43.832;5.974;2024-03-07T00:48:16;95166.53;;;8.40;69.80
84914;BME280;75177;43.832;5.974;2024-03-07T00:50:42;95159.50;;;8.31;69.07
84914;BME280;75177;43.832;5.974;2024-03-07T00:53:08;95171.78;;;8.32;70.22
84914;BME280;75177;43.832;5.974;2024-03-07T00:55:33;95167.84;;;8.18;70.27
84914;BME280;75177;43.832;5.974;2024-03-07T00:57:59;95169.69;;;8.18;68.49
84914;BME280;75177;43.832;5.974;2024-03-07T01:00:25;95169.16;;;8.14;68.27
84914;BME280;75177;43.832;5.974;2024-03-07T01:02:50;95176.66;;;8.19;69.75
84914;BME280;75177;43.832;5.974;2024-03-07T01:05:18;95172.50;;;8.16;69.73
84914;BME280;75177;43.832;5.974;2024-03-07T01:07:44;95171.66;;;8.16;70.69
84914;BME280;75177;43.832;5.974;2024-03-07T01:10:13;95171.13;;;8.12;69.11
84914;BME280;75177;43.832;5.974;2024-03-07T01:12:39;95173.13;;;8.10;70.28
84914;BME280;75177;43.832;5.974;2024-03-07T01:15:05;95172.44;;;7.90;70.69
84914;BME280;75177;43.832;5.974;2024-03-07T01:17:30;95166.28;;;7.90;68.16
84914;BME280;75177;43.832;5.974;2024-03-07T01:19:56;95159.94;;;7.83;69.29
84914;BME280;75177;43.832;5.974;2024-03-07T01:22:23;95170.34;;;7.76;70.27
84914;BME280;75177;43.832;5.974;2024-03-07T01:24:48;95155.44;;;7.83;69.62
84914;BME280;75177;43.832;5.974;2024-03-07T01:27:13;95159.09;;;7.82;70.91
84914;BME280;75177;43.832;5.974;2024-03-07T01:29:39;95153.78;;;7.82;71.96
84914;BME280;75177;43.832;5.974;2024-03-07T01:32:09;95152.19;;;7.72;71.97
84914;BME280;75177;43.832;5.974;2024-03-07T01:34:35;95151.69;;;7.68;71.28
84914;BME280;75177;43.832;5.974;2024-03-07T01:37:00;95150.59;;;7.61;70.51
84914;BME280;75177;43.832;5.974;2024-03-07T01:39:26;95150.59;;;7.61;72.39
84914;BME280;75177;43.832;5.974;2024-03-07T01:41:51;95146.38;;;7.68;72.87
84914;BME280;75177;43.832;5.974;2024-03-07T01:44:17;95152.88;;;7.56;71.07
84914;BME280;75177;43.832;5.974;2024-03-07T01:46:42;95137.25;;;7.53;71.95
84914;BME280;75177;43.832;5.974;2024-03-07T01:49:08;95140.31;;;7.58;73.32
84914;BME280;75177;43.832;5.974;2024-03-07T01:51:35;95134.91;;;7.50;72.87
84914;BME280;75177;43.832;5.974;2024-03-07T01:54:01;95136.72;;;7.50;72.20
84914;BME280;75177;43.832;5.974;2024-03-07T01:56:27;95134.81;;;7.42;72.44
84914;BME280;75177;43.832;5.974;2024-03-07T01:58:55;95126.16;;;7.40;73.14
84914;BME280;75177;43.832;5.974;2024-03-07T02:01:20;95123.16;;;7.35;72.92
84914;BME280;75177;43.832;5.974;2024-03-07T02:03:46;95124.28;;;7.32;72.96
84914;BME280;75177;43.832;5.974;2024-03-07T02:06:11;95117.38;;;7.22;71.95
84914;BME280;75177;43.832;5.974;2024-03-07T02:08:38;95124.34;;;7.23;73.89
84914;BME280;75177;43.832;5.974;2024-03-07T02:11:03;95125.09;;;7.15;72.04
84914;BME280;75177;43.832;5.974;2024-03-07T02:13:29;95119.56;;;7.09;73.74
84914;BME280;75177;43.832;5.974;2024-03-07T02:15:55;95114.63;;;7.14;72.76
84914;BME280;75177;43.832;5.974;2024-03-07T02:18:20;95126.78;;;7.16;73.32
84914;BME280;75177;43.832;5.974;2024-03-07T02:20:46;95107.97;;;7.10;71.91
84914;BME280;75177;43.832;5.974;2024-03-07T02:23:12;95112.34;;;7.19;74.69
84914;BME280;75177;43.832;5.974;2024-03-07T02:25:37;95107.34;;;7.16;72.92
84914;BME280;75177;43.832;5.974;2024-03-07T02:28:04;95105.06;;;7.21;73.35
84914;BME280;75177;43.832;5.974;2024-03-07T02:30:30;95101.28;;;7.06;73.72
84914;BME280;75177;43.832;5.974;2024-03-07T02:32:57;95092.03;;;7.10;74.00
84914;BME280;75177;43.832;5.974;2024-03-07T02:35:25;95093.94;;;7.00;73.39
84914;BME280;75177;43.832;5.974;2024-03-07T02:37:50;95093.53;;;6.95;73.75
84914;BME280;75177;43.832;5.974;2024-03-07T02:40:16;95092.41;;;6.97;73.58
84914;BME280;75177;43.832;5.974;2024-03-07T02:42:42;95098.25;;;7.01;73.27
84914;BME280;75177;43.832;5.974;2024-03-07T02:45:08;95094.13;;;6.89;74.42
84914;BME280;75177;43.832;5.974;2024-03-07T02:47:33;95080.88;;;6.89;73.39
84914;BME280;75177;43.832;5.974;2024-03-07T02:49:59;95101.97;;;7.08;74.91
84914;BME280;75177;43.832;5.974;2024-03-07T02:52:24;95090.19;;;6.93;74.83
84914;BME280;75177;43.832;5.974;2024-03-07T02:54:49;95091.56;;;6.97;73.99
84914;BME280;75177;43.832;5.974;2024-03-07T02:57:15;95099.38;;;6.98;74.72
84914;BME280;75177;43.832;5.974;2024-03-07T02:59:41;95088.50;;;6.92;74.57
84914;BME280;75177;43.832;5.974;2024-03-07T03:02:07;95098.31;;;6.91;75.04
84914;BME280;75177;43.832;5.974;2024-03-07T03:04:32;95097.72;;;6.97;75.56
84914;BME280;75177;43.832;5.974;2024-03-07T03:06:58;95084.59;;;6.96;77.29
84914;BME280;75177;43.832;5.974;2024-03-07T03:09:24;95089.59;;;6.99;76.04
84914;BME280;75177;43.832;5.974;2024-03-07T03:11:49;95096.28;;;7.03;75.38
84914;BME280;75177;43.832;5.974;2024-03-07T03:14:14;95086.66;;;7.02;75.68
84914;BME280;75177;43.832;5.974;2024-03-07T03:16:43;95081.78;;;6.97;75.28
84914;BME280;75177;43.832;5.974;2024-03-07T03:19:09;95091.97;;;7.19;77.18
84914;BME280;75177;43.832;5.974;2024-03-07T03:21:35;95089.47;;;7.18;78.08
84914;BME280;75177;43.832;5.974;2024-03-07T03:24:01;95094.97;;;7.07;76.66
84914;BME280;75177;43.832;5.974;2024-03-07T03:26:27;95095.97;;;7.06;77.24
84914;BME280;75177;43.832;5.974;2024-03-07T03:28:53;95083.41;;;7.08;80.12
84914;BME280;75177;43.832;5.974;2024-03-07T03:31:19;95093.09;;;7.17;78.68
84914;BME280;75177;43.832;5.974;2024-03-07T03:33:45;95093.41;;;7.14;77.71
84914;BME280;75177;43.832;5.974;2024-03-07T03:36:11;95084.28;;;6.99;77.06
84914;BME280;75177;43.832;5.974;2024-03-07T03:38:36;95086.56;;;6.94;78.45
84914;BME280;75177;43.832;5.974;2024-03-07T03:41:02;95090.97;;;6.85;76.71
84914;BME280;75177;43.832;5.974;2024-03-07T03:43:28;95083.81;;;6.86;78.03
84914;BME280;75177;43.832;5.974;2024-03-07T03:45:53;95078.69;;;7.02;77.45
84914;BME280;75177;43.832;5.974;2024-03-07T03:48:19;95070.94;;;6.91;79.31
84914;BME280;75177;43.832;5.974;2024-03-07T03:50:44;95072.91;;;6.89;77.34
84914;BME280;75177;43.832;5.974;2024-03-07T03:53:11;95078.91;;;6.91;77.71
84914;BME280;75177;43.832;5.974;2024-03-07T03:55:37;95069.56;;;6.87;79.18
84914;BME280;75177;43.832;5.974;2024-03-07T03:58:02;95074.00;;;6.96;80.06
84914;BME280;75177;43.832;5.974;2024-03-07T04:00:30;95070.34;;;6.97;78.94
84914;BME280;75177;43.832;5.974;2024-03-07T04:02:55;95072.47;;;6.93;80.56
84914;BME280;75177;43.832;5.974;2024-03-07T04:05:21;95073.88;;;6.88;78.36
84914;BME280;75177;43.832;5.974;2024-03-07T04:07:47;95081.31;;;6.84;79.09
84914;BME280;75177;43.832;5.974;2024-03-07T04:10:15;95072.16;;;6.79;79.34
84914;BME280;75177;43.832;5.974;2024-03-07T04:12:41;95078.13;;;6.81;78.76
84914;BME280;75177;43.832;5.974;2024-03-07T04:15:08;95072.44;;;6.76;77.69
84914;BME280;75177;43.832;5.974;2024-03-07T04:17:34;95077.22;;;6.72;77.79
84914;BME280;75177;43.832;5.974;2024-03-07T04:20:00;95066.84;;;6.79;79.19
84914;BME280;75177;43.832;5.974;2024-03-07T04:22:26;95064.25;;;6.87;80.95
84914;BME280;75177;43.832;5.974;2024-03-07T04:24:52;95065.09;;;6.87;81.46
84914;BME280;75177;43.832;5.974;2024-03-07T04:27:20;95058.97;;;6.87;82.96
84914;BME280;75177;43.832;5.974;2024-03-07T04:29:46;95061.63;;;6.87;81.95
84914;BME280;75177;43.832;5.974;2024-03-07T04:32:13;95065.41;;;6.84;80.87
84914;BME280;75177;43.832;5.974;2024-03-07T04:34:38;95069.41;;;6.71;80.30
84914;BME280;75177;43.832;5.974;2024-03-07T04:37:04;95062.41;;;6.70;79.36
84914;BME280;75177;43.832;5.974;2024-03-07T04:39:30;95067.53;;;6.81;81.99
84914;BME280;75177;43.832;5.974;2024-03-07T04:42:07;95062.06;;;6.82;81.14
84914;BME280;75177;43.832;5.974;2024-03-07T04:44:35;95051.81;;;6.70;80.82
84914;BME280;75177;43.832;5.974;2024-03-07T04:47:05;95070.53;;;6.68;78.74
84914;BME280;75177;43.832;5.974;2024-03-07T04:49:32;95075.75;;;6.78;82.86
84914;BME280;75177;43.832;5.974;2024-03-07T04:51:59;95059.75;;;6.70;80.47
84914;BME280;75177;43.832;5.974;2024-03-07T04:54:25;95070.53;;;6.68;80.03
84914;BME280;75177;43.832;5.974;2024-03-07T04:56:51;95069.00;;;6.66;82.24
84914;BME280;75177;43.832;5.974;2024-03-07T04:59:18;95075.19;;;6.57;79.50
84914;BME280;75177;43.832;5.974;2024-03-07T05:01:45;95071.97;;;6.63;79.54
84914;BME280;75177;43.832;5.974;2024-03-07T05:04:14;95068.25;;;6.73;83.06
84914;BME280;75177;43.832;5.974;2024-03-07T05:06:40;95075.88;;;6.59;80.12
84914;BME280;75177;43.832;5.974;2024-03-07T05:09:08;95086.00;;;6.45;78.77
84914;BME280;75177;43.832;5.974;2024-03-07T05:11:35;95085.50;;;6.32;77.07
84914;BME280;75177;43.832;5.974;2024-03-07T05:14:01;95083.13;;;6.39;77.39
84914;BME280;75177;43.832;5.974;2024-03-07T05:16:30;95068.84;;;6.40;78.47
84914;BME280;75177;43.832;5.974;2024-03-07T05:18:58;95085.03;;;6.46;80.31
84914;BME280;75177;43.832;5.974;2024-03-07T05:21:25;95089.59;;;6.54;80.02
84914;BME280;75177;43.832;5.974;2024-03-07T05:24:00;95084.06;;;6.47;80.63
84914;BME280;75177;43.832;5.974;2024-03-07T05:26:26;95083.28;;;6.37;80.24
84914;BME280;75177;43.832;5.974;2024-03-07T05:28:52;95086.59;;;6.39;78.73
84914;BME280;75177;43.832;5.974;2024-03-07T05:31:19;95078.84;;;6.28;78.71
84914;BME280;75177;43.832;5.974;2024-03-07T05:33:46;95080.91;;;6.34;79.26
84914;BME280;75177;43.832;5.974;2024-03-07T05:36:11;95073.81;;;6.25;81.49
84914;BME280;75177;43.832;5.974;2024-03-07T05:38:43;95082.84;;;6.32;81.60
84914;BME280;75177;43.832;5.974;2024-03-07T05:41:10;95075.78;;;6.23;79.93
84914;BME280;75177;43.832;5.974;2024-03-07T05:43:36;95077.47;;;6.24;79.77
84914;BME280;75177;43.832;5.974;2024-03-07T05:46:02;95093.38;;;6.24;81.59
84914;BME280;75177;43.832;5.974;2024-03-07T05:48:28;95087.06;;;6.25;80.88
84914;BME280;75177;43.832;5.974;2024-03-07T05:50:53;95079.69;;;6.19;80.95
84914;BME280;75177;43.832;5.974;2024-03-07T05:53:19;95087.22;;;6.24;82.00
84914;BME280;75177;43.832;5.974;2024-03-07T05:55:44;95085.09;;;6.27;82.59
84914;BME280;75177;43.832;5.974;2024-03-07T05:58:11;95083.03;;;6.21;80.73
84914;BME280;75177;43.832;5.974;2024-03-07T06:00:36;95080.69;;;6.18;82.49
84914;BME280;75177;43.832;5.974;2024-03-07T06:03:04;95085.59;;;6.13;81.01
84914;BME280;75177;43.832;5.974;2024-03-07T06:05:30;95081.13;;;6.14;80.36
84914;BME280;75177;43.832;5.974;2024-03-07T06:07:55;95082.25;;;6.11;81.74
84914;BME280;75177;43.832;5.974;2024-03-07T06:10:22;95079.69;;;6.19;84.08
84914;BME280;75177;43.832;5.974;2024-03-07T06:12:53;95073.31;;;6.12;81.83
84914;BME280;75177;43.832;5.974;2024-03-07T06:15:19;95073.59;;;6.09;83.13
84914;BME280;75177;43.832;5.974;2024-03-07T06:17:46;95066.94;;;6.05;82.81
84914;BME280;75177;43.832;5.974;2024-03-07T06:20:12;95076.66;;;6.14;84.42
84914;BME280;75177;43.832;5.974;2024-03-07T06:22:48;95093.09;;;6.18;84.67
84914;BME280;75177;43.832;5.974;2024-03-07T06:25:16;95091.47;;;6.07;84.40
84914;BME280;75177;43.832;5.974;2024-03-07T06:27:48;95091.19;;;6.10;83.40
84914;BME280;75177;43.832;5.974;2024-03-07T06:30:17;95092.03;;;6.01;83.70
84914;BME280;75177;43.832;5.974;2024-03-07T06:32:43;95093.31;;;5.97;81.81
84914;BME280;75177;43.832;5.974;2024-03-07T06:35:09;95095.97;;;5.97;83.67
84914;BME280;75177;43.832;5.974;2024-03-07T06:37:35;95095.00;;;5.98;83.50
84914;BME280;75177;43.832;5.974;2024-03-07T06:40:01;95105.72;;;6.06;83.77
84914;BME280;75177;43.832;5.974;2024-03-07T06:42:30;95109.06;;;6.08;85.18
84914;BME280;75177;43.832;5.974;2024-03-07T06:44:58;95109.63;;;6.02;85.40
84914;BME280;75177;43.832;5.974;2024-03-07T06:47:23;95104.59;;;5.99;81.61
84914;BME280;75177;43.832;5.974;2024-03-07T06:49:48;95114.25;;;6.00;84.32
84914;BME280;75177;43.832;5.974;2024-03-07T06:52:14;95123.84;;;6.01;85.25
84914;BME280;75177;43.832;5.974;2024-03-07T06:54:40;95117.44;;;6.04;82.76
84914;BME280;75177;43.832;5.974;2024-03-07T06:57:06;95117.84;;;5.99;85.57
84914;BME280;75177;43.832;5.974;2024-03-07T06:59:31;95121.72;;;6.05;86.21
84914;BME280;75177;43.832;5.974;2024-03-07T07:01:57;95127.88;;;6.05;85.32
84914;BME280;75177;43.832;5.974;2024-03-07T07:04:24;95124.97;;;5.99;85.61
84914;BME280;75177;43.832;5.974;2024-03-07T07:06:50;95132.78;;;6.00;86.91
84914;BME280;75177;43.832;5.974;2024-03-07T07:09:16;95127.50;;;6.00;88.54
84914;BME280;75177;43.832;5.974;2024-03-07T07:11:44;95126.59;;;6.09;89.53
84914;BME280;75177;43.832;5.974;2024-03-07T07:14:10;95118.28;;;6.04;90.21
84914;BME280;75177;43.832;5.974;2024-03-07T07:16:36;95126.91;;;6.06;89.61
84914;BME280;75177;43.832;5.974;2024-03-07T07:19:06;95126.59;;;6.09;90.77
84914;BME280;75177;43.832;5.974;2024-03-07T07:21:32;95116.31;;;6.06;90.91
84914;BME280;75177;43.832;5.974;2024-03-07T07:23:57;95116.69;;;6.11;92.28
84914;BME280;75177;43.832;5.974;2024-03-07T07:26:23;95114.47;;;6.16;91.43
84914;BME280;75177;43.832;5.974;2024-03-07T07:28:48;95118.50;;;6.20;92.08
84914;BME280;75177;43.832;5.974;2024-03-07T07:31:14;95113.47;;;6.17;93.06
84914;BME280;75177;43.832;5.974;2024-03-07T07:33:39;95121.25;;;6.28;94.39
84914;BME280;75177;43.832;5.974;2024-03-07T07:36:05;95121.78;;;6.32;94.66
84914;BME280;75177;43.832;5.974;2024-03-07T07:38:31;95121.50;;;6.35;95.75
84914;BME280;75177;43.832;5.974;2024-03-07T07:40:57;95114.81;;;6.31;95.07
84914;BME280;75177;43.832;5.974;2024-03-07T07:43:22;95126.06;;;6.42;95.54
84914;BME280;75177;43.832;5.974;2024-03-07T07:45:48;95123.13;;;6.45;95.05
84914;BME280;75177;43.832;5.974;2024-03-07T07:48:13;95112.38;;;6.47;96.74
84914;BME280;75177;43.832;5.974;2024-03-07T07:50:41;95117.25;;;6.52;97.29
84914;BME280;75177;43.832;5.974;2024-03-07T07:53:07;95125.28;;;6.60;98.24
84914;BME280;75177;43.832;5.974;2024-03-07T07:55:34;95130.16;;;6.64;98.35
84914;BME280;75177;43.832;5.974;2024-03-07T07:58:00;95125.72;;;6.65;99.21
84914;BME280;75177;43.832;5.974;2024-03-07T08:00:27;95126.41;;;6.67;98.65
84914;BME280;75177;43.832;5.974;2024-03-07T08:02:57;95147.03;;;6.73;99.75
84914;BME280;75177;43.832;5.974;2024-03-07T08:05:24;95135.72;;;6.71;99.51
84914;BME280;75177;43.832;5.974;2024-03-07T08:07:58;95147.41;;;6.78;100.00
84914;BME280;75177;43.832;5.974;2024-03-07T08:10:25;95147.81;;;6.83;100.00
84914;BME280;75177;43.832;5.974;2024-03-07T08:12:51;95142.50;;;6.83;100.00
84914;BME280;75177;43.832;5.974;2024-03-07T08:15:16;95142.75;;;6.89;100.00
84914;BME280;75177;43.832;5.974;2024-03-07T08:17:43;95141.91;;;6.89;100.00
84914;BME280;75177;43.832;5.974;2024-03-07T08:20:15;95139.53;;;6.86;100.00
84914;BME280;75177;43.832;5.974;2024-03-07T08:22:41;95128.78;;;6.87;100.00
84914;BME280;75177;43.832;5.974;2024-03-07T08:25:09;95134.91;;;6.88;100.00
84914;BME280;75177;43.832;5.974;2024-03-07T08:27:36;95134.72;;;6.99;100.00
84914;BME280;75177;43.832;5.974;2024-03-07T08:30:03;95141.22;;;7.04;100.00
84914;BME280;75177;43.832;5.974;2024-03-07T08:32:28;95138.13;;;7.09;100.00
84914;BME280;75177;43.832;5.974;2024-03-07T08:34:54;95143.16;;;7.12;100.00
84914;BME280;75177;43.832;5.974;2024-03-07T08:37:19;95131.69;;;7.11;100.00
84914;BME280;75177;43.832;5.974;2024-03-07T08:39:47;95133.06;;;7.15;100.00
84914;BME280;75177;43.832;5.974;2024-03-07T08:42:13;95135.88;;;7.14;100.00
84914;BME280;75177;43.832;5.974;2024-03-07T08:44:38;95136.94;;;7.21;100.00
84914;BME280;75177;43.832;5.974;2024-03-07T08:47:03;95140.25;;;7.23;100.00
84914;BME280;75177;43.832;5.974;2024-03-07T08:49:29;95126.03;;;7.24;100.00
84914;BME280;75177;43.832;5.974;2024-03-07T08:51:54;95141.34;;;7.30;100.00
84914;BME280;75177;43.832;5.974;2024-03-07T08:54:20;95138.53;;;7.31;100.00
84914;BME280;75177;43.832;5.974;2024-03-07T08:56:45;95143.78;;;7.41;100.00
84914;BME280;75177;43.832;5.974;2024-03-07T08:59:10;95130.81;;;7.38;100.00
84914;BME280;75177;43.832;5.974;2024-03-07T09:01:41;95137.19;;;7.45;100.00
84914;BME280;75177;43.832;5.974;2024-03-07T09:04:08;95141.81;;;7.43;100.00
84914;BME280;75177;43.832;5.974;2024-03-07T09:06:34;95132.56;;;7.47;100.00
84914;BME280;75177;43.832;5.974;2024-03-07T09:08:59;95135.56;;;7.52;99.96
84914;BME280;75177;43.832;5.974;2024-03-07T09:11:25;95136.34;;;7.62;97.18
84914;BME280;75177;43.832;5.974;2024-03-07T09:13:50;95139.00;;;7.62;99.05
84914;BME280;75177;43.832;5.974;2024-03-07T09:16:16;95139.69;;;7.64;98.70
84914;BME280;75177;43.832;5.974;2024-03-07T09:18:41;95144.38;;;7.70;97.30
84914;BME280;75177;43.832;5.974;2024-03-07T09:21:07;95128.44;;;7.70;100.00
84914;BME280;75177;43.832;5.974;2024-03-07T09:23:34;95130.50;;;7.76;98.20
84914;BME280;75177;43.832;5.974;2024-03-07T09:25:59;95109.16;;;7.68;99.18
84914;BME280;75177;43.832;5.974;2024-03-07T09:28:25;95121.38;;;7.79;100.00
84914;BME280;75177;43.832;5.974;2024-03-07T09:30:50;95132.75;;;7.89;100.00
84914;BME280;75177;43.832;5.974;2024-03-07T09:33:16;95130.22;;;7.87;100.00
84914;BME280;75177;43.832;5.974;2024-03-07T09:35:45;95125.75;;;7.88;99.94
84914;BME280;75177;43.832;5.974;2024-03-07T09:38:10;95131.97;;;7.96;98.83
84914;BME280;75177;43.832;5.974;2024-03-07T09:40:37;95134.63;;;7.96;98.35
84914;BME280;75177;43.832;5.974;2024-03-07T09:43:02;95128.00;;;8.00;97.37
84914;BME280;75177;43.832;5.974;2024-03-07T09:45:30;95135.81;;;8.02;97.77
84914;BME280;75177;43.832;5.974;2024-03-07T09:47:57;95130.38;;;8.03;96.79
84914;BME280;75177;43.832;5.974;2024-03-07T09:50:26;95115.72;;;7.99;97.54
84914;BME280;75177;43.832;5.974;2024-03-07T09:52:53;95143.09;;;8.18;98.55
84914;BME280;75177;43.832;5.974;2024-03-07T09:55:19;95143.09;;;8.18;99.88
84914;BME280;75177;43.832;5.974;2024-03-07T09:57:49;95146.66;;;8.26;98.15
84914;BME280;75177;43.832;5.974;2024-03-07T10:00:20;95142.19;;;8.27;96.22
84914;BME280;75177;43.832;5.974;2024-03-07T10:02:59;95148.88;;;8.31;95.82
84914;BME280;75177;43.832;5.974;2024-03-07T10:05:27;95135.06;;;8.35;94.71
84914;BME280;75177;43.832;5.974;2024-03-07T10:07:53;95125.72;;;8.31;96.26
84914;BME280;75177;43.832;5.974;2024-03-07T10:10:21;95139.16;;;8.47;94.32
84914;BME280;75177;43.832;5.974;2024-03-07T10:12:48;95137.69;;;8.53;92.77
84914;BME280;75177;43.832;5.974;2024-03-07T10:15:13;95138.19;;;8.56;91.02
84914;BME280;75177;43.832;5.974;2024-03-07T10:17:39;95123.72;;;8.59;86.97
84914;BME280;75177;43.832;5.974;2024-03-07T10:20:06;95138.22;;;8.64;89.42
84914;BME280;75177;43.832;5.974;2024-03-07T10:22:36;95129.44;;;8.64;90.43
84914;BME280;75177;43.832;5.974;2024-03-07T10:25:03;95117.78;;;8.65;90.18
84914;BME280;75177;43.832;5.974;2024-03-07T10:27:29;95129.78;;;8.77;86.05
84914;BME280;75177;43.832;5.974;2024-03-07T10:29:54;95127.31;;;8.83;84.90
84914;BME280;75177;43.832;5.974;2024-03-07T10:32:21;95131.34;;;8.87;85.01
84914;BME280;75177;43.832;5.974;2024-03-07T10:34:51;95132.00;;;8.89;86.29
84914;BME280;75177;43.832;5.974;2024-03-07T10:37:17;95118.69;;;8.89;87.76
84914;BME280;75177;43.832;5.974;2024-03-07T10:39:44;95121.25;;;8.99;81.93
84914;BME280;75177;43.832;5.974;2024-03-07T10:42:13;95117.59;;;9.08;80.41
84914;BME280;75177;43.832;5.974;2024-03-07T10:44:46;95118.94;;;9.12;77.51
84914;BME280;75177;43.832;5.974;2024-03-07T10:47:17;95119.28;;;9.09;80.01
84914;BME280;75177;43.832;5.974;2024-03-07T10:49:53;95116.63;;;9.17;79.14
84914;BME280;75177;43.832;5.974;2024-03-07T10:52:49;95120.16;;;9.26;77.03
84914;BME280;75177;43.832;5.974;2024-03-07T10:57:52;95115.00;;;9.32;74.30
84914;BME280;75177;43.832;5.974;2024-03-07T11:00:25;95109.34;;;9.35;72.53
84914;BME280;75177;43.832;5.974;2024-03-07T11:03:02;95117.84;;;9.39;75.51
84914;BME280;75177;43.832;5.974;2024-03-07T11:05:32;95110.66;;;9.39;74.44
84914;BME280;75177;43.832;5.974;2024-03-07T11:08:00;95111.88;;;9.53;70.67
84914;BME280;75177;43.832;5.974;2024-03-07T11:10:30;95110.84;;;9.62;69.37
84914;BME280;75177;43.832;5.974;2024-03-07T11:12:57;95108.19;;;9.54;71.14
84914;BME280;75177;43.832;5.974;2024-03-07T11:15:23;95101.69;;;9.56;72.69
84914;BME280;75177;43.832;5.974;2024-03-07T11:17:52;95099.88;;;9.65;69.90
84914;BME280;75177;43.832;5.974;2024-03-07T11:22:47;95097.22;;;9.73;69.35
84914;BME280;75177;43.832;5.974;2024-03-07T11:25:17;95098.72;;;9.76;70.17
84914;BME280;75177;43.832;5.974;2024-03-07T11:28:00;95095.38;;;9.82;70.18
84914;BME280;75177;43.832;5.974;2024-03-07T11:30:27;95085.03;;;9.79;71.87
84914;BME280;75177;43.832;5.974;2024-03-07T11:32:54;95090.03;;;9.98;67.30
84914;BME280;75177;43.832;5.974;2024-03-07T11:35:37;95074.72;;;9.84;70.52
84914;BME280;75177;43.832;5.974;2024-03-07T11:38:08;95077.88;;;9.87;71.46
84914;BME280;75177;43.832;5.974;2024-03-07T11:43:04;95069.34;;;10.08;69.93
84914;BME280;75177;43.832;5.974;2024-03-07T11:45:32;95059.53;;;10.08;73.76
84914;BME280;75177;43.832;5.974;2024-03-07T11:48:04;95063.34;;;10.30;67.11
84914;BME280;75177;43.832;5.974;2024-03-07T11:50:33;95059.50;;;10.24;69.87
84914;BME280;75177;43.832;5.974;2024-03-07T11:53:03;95052.31;;;10.33;71.39
84914;BME280;75177;43.832;5.974;2024-03-07T11:55:35;95060.28;;;10.41;67.74
84914;BME280;75177;43.832;5.974;2024-03-07T11:58:12;95065.63;;;10.41;69.69
84914;BME280;75177;43.832;5.974;2024-03-07T12:00:42;95055.06;;;10.64;66.94
84914;BME280;75177;43.832;5.974;2024-03-07T12:03:10;95058.88;;;10.69;64.39
84914;BME280;75177;43.832;5.974;2024-03-07T12:05:41;95033.78;;;10.78;65.99
84914;BME280;75177;43.832;5.974;2024-03-07T12:08:07;95039.91;;;10.87;62.86
84914;BME280;75177;43.832;5.974;2024-03-07T12:10:35;95035.78;;;10.84;64.72
84914;BME280;75177;43.832;5.974;2024-03-07T12:13:01;95042.06;;;10.91;62.67
84914;BME280;75177;43.832;5.974;2024-03-07T12:15:27;95037.03;;;10.96;62.85
84914;BME280;75177;43.832;5.974;2024-03-07T12:17:52;95034.75;;;11.16;60.93
84914;BME280;75177;43.832;5.974;2024-03-07T12:20:19;95030.84;;;11.26;61.75
84914;BME280;75177;43.832;5.974;2024-03-07T12:22:55;95028.09;;;11.34;59.03
84914;BME280;75177;43.832;5.974;2024-03-07T12:25:21;95023.97;;;11.32;60.77
84914;BME280;75177;43.832;5.974;2024-03-07T12:27:59;95019.34;;;11.49;57.20
84914;BME280;75177;43.832;5.974;2024-03-07T12:30:29;95016.94;;;11.54;56.71
84914;BME280;75177;43.832;5.974;2024-03-07T12:32:58;95028.81;;;11.51;60.30
84914;BME280;75177;43.832;5.974;2024-03-07T12:35:24;95033.25;;;11.67;58.62
84914;BME280;75177;43.832;5.974;2024-03-07T12:37:49;95019.78;;;11.75;57.04
84914;BME280;75177;43.832;5.974;2024-03-07T12:40:16;95027.03;;;11.89;57.10
84914;BME280;75177;43.832;5.974;2024-03-07T12:42:47;95022.31;;;11.91;55.29
84914;BME280;75177;43.832;5.974;2024-03-07T12:45:13;95018.78;;;12.13;51.85
84914;BME280;75177;43.832;5.974;2024-03-07T12:47:43;95015.44;;;12.11;53.54
84914;BME280;75177;43.832;5.974;2024-03-07T12:50:09;95014.06;;;12.30;49.66
84914;BME280;75177;43.832;5.974;2024-03-07T12:52:35;95014.34;;;12.35;50.31
84914;BME280;75177;43.832;5.974;2024-03-07T12:55:01;95014.88;;;12.30;51.73
84914;BME280;75177;43.832;5.974;2024-03-07T12:57:26;95013.78;;;12.39;52.39
84914;BME280;75177;43.832;5.974;2024-03-07T12:59:52;95011.19;;;12.60;50.64
84914;BME280;75177;43.832;5.974;2024-03-07T13:02:17;95006.75;;;12.67;50.52
84914;BME280;75177;43.832;5.974;2024-03-07T13:04:43;95002.94;;;12.76;49.25
84914;BME280;75177;43.832;5.974;2024-03-07T13:07:10;95006.38;;;12.70;51.35
84914;BME280;75177;43.832;5.974;2024-03-07T13:09:36;94985.88;;;12.77;53.45
84914;BME280;75177;43.832;5.974;2024-03-07T13:12:03;95000.44;;;12.89;56.45
84914;BME280;75177;43.832;5.974;2024-03-07T13:14:32;95002.38;;;12.96;57.07